createdAt,value
2018-07-28T00:00:40.292Z,0
2018-07-28T00:01:20.871Z,0
2018-07-28T00:02:01.625Z,0
2018-07-28T00:02:42.083Z,0
2018-07-28T00:03:22.656Z,0
2018-07-28T00:04:03.208Z,0
2018-07-28T00:04:43.787Z,0
2018-07-28T00:05:24.349Z,0
2018-07-28T00:06:04.910Z,0
2018-07-28T00:06:45.482Z,0
2018-07-28T00:07:26.087Z,0
2018-07-28T00:08:06.643Z,0
2018-07-28T00:08:47.236Z,0
2018-07-28T00:09:27.800Z,0
2018-07-28T00:10:08.405Z,0
2018-07-28T00:10:48.955Z,0
2018-07-28T00:11:36.462Z,0
2018-07-28T00:12:17.067Z,0
2018-07-28T00:12:57.639Z,0
2018-07-28T00:13:38.290Z,0
2018-07-28T00:14:18.889Z,0
2018-07-28T00:14:59.461Z,0
2018-07-28T00:15:40.025Z,0
2018-07-28T00:16:20.610Z,0
2018-07-28T00:17:01.280Z,0
2018-07-28T00:17:41.995Z,0
2018-07-28T00:18:22.555Z,0
2018-07-28T00:19:03.289Z,0
2018-07-28T00:19:43.988Z,0
2018-07-28T00:20:24.539Z,0
2018-07-28T00:21:05.102Z,0
2018-07-28T00:21:45.648Z,0
2018-07-28T00:22:26.232Z,0
2018-07-28T00:23:06.785Z,0
2018-07-28T00:23:47.352Z,0
2018-07-28T00:24:27.922Z,0
2018-07-28T00:25:08.478Z,0
2018-07-28T00:25:49.068Z,0
2018-07-28T00:26:29.647Z,0
2018-07-28T00:27:10.216Z,0
2018-07-28T00:27:50.776Z,0
2018-07-28T00:28:31.332Z,0
2018-07-28T00:29:11.889Z,0
2018-07-28T00:29:52.451Z,0
2018-07-28T00:30:33.022Z,0
2018-07-28T00:31:13.585Z,0
2018-07-28T00:31:54.140Z,0
2018-07-28T00:32:34.753Z,0
2018-07-28T00:33:15.365Z,0
2018-07-28T00:33:55.905Z,0
2018-07-28T00:34:36.476Z,0
2018-07-28T00:35:17.043Z,0
2018-07-28T00:35:57.656Z,0
2018-07-28T00:36:38.184Z,0
2018-07-28T00:37:18.758Z,0
2018-07-28T00:37:59.347Z,0
2018-07-28T00:38:39.958Z,0
2018-07-28T00:39:20.513Z,0
2018-07-28T00:40:01.074Z,0
2018-07-28T00:40:41.640Z,0
2018-07-28T00:41:22.221Z,0
2018-07-28T00:42:02.789Z,0
2018-07-28T00:42:43.343Z,0
2018-07-28T00:43:23.902Z,0
2018-07-28T00:44:04.524Z,0
2018-07-28T00:44:45.093Z,0
2018-07-28T00:45:25.659Z,0
2018-07-28T00:46:06.224Z,0
2018-07-28T00:46:46.798Z,0
2018-07-28T00:47:27.377Z,0
2018-07-28T00:48:07.955Z,0
2018-07-28T00:48:48.530Z,0
2018-07-28T00:49:29.101Z,0
2018-07-28T00:50:09.681Z,0
2018-07-28T00:50:50.248Z,0
2018-07-28T00:51:30.815Z,0
2018-07-28T00:52:11.387Z,0
2018-07-28T00:52:52.002Z,0
2018-07-28T00:53:32.592Z,0
2018-07-28T00:54:13.159Z,0
2018-07-28T00:54:53.729Z,0
2018-07-28T00:55:34.294Z,0
2018-07-28T00:56:14.880Z,0
2018-07-28T00:56:55.595Z,0
2018-07-28T00:57:36.162Z,0
2018-07-28T00:58:16.757Z,0
2018-07-28T00:58:57.322Z,0
2018-07-28T00:59:37.894Z,0
2018-07-28T01:00:18.470Z,0
2018-07-28T01:00:59.036Z,0
2018-07-28T01:01:39.595Z,0
2018-07-28T01:02:20.197Z,0
2018-07-28T01:03:00.758Z,0
2018-07-28T01:03:41.327Z,0
2018-07-28T01:04:21.894Z,0
2018-07-28T01:05:02.482Z,0
2018-07-28T01:05:43.056Z,0
2018-07-28T01:06:23.656Z,0
2018-07-28T01:07:04.247Z,0
2018-07-28T01:07:44.877Z,0
2018-07-28T01:08:25.466Z,0
2018-07-28T01:09:06.035Z,0
2018-07-28T01:09:46.641Z,0
2018-07-28T01:10:27.204Z,0
2018-07-28T01:11:07.771Z,0
2018-07-28T01:11:48.331Z,0
2018-07-28T01:12:28.903Z,0
2018-07-28T01:13:09.465Z,0
2018-07-28T01:13:50.029Z,0
2018-07-28T01:14:30.599Z,0
2018-07-28T01:15:11.160Z,0
2018-07-28T01:15:51.723Z,0
2018-07-28T01:16:32.290Z,0
2018-07-28T01:17:12.897Z,0
2018-07-28T01:17:53.509Z,0
2018-07-28T01:18:34.068Z,0
2018-07-28T01:19:14.632Z,0
2018-07-28T01:19:55.201Z,0
2018-07-28T01:20:35.774Z,0
2018-07-28T01:21:16.347Z,0
2018-07-28T01:21:56.969Z,0
2018-07-28T01:22:37.527Z,0
2018-07-28T01:23:18.104Z,0
2018-07-28T01:23:58.814Z,0
2018-07-28T01:24:39.391Z,0
2018-07-28T01:25:19.969Z,0
2018-07-28T01:26:00.553Z,0
2018-07-28T01:26:41.196Z,0
2018-07-28T01:27:21.761Z,0
2018-07-28T01:28:02.332Z,0
2018-07-28T01:28:42.887Z,0
2018-07-28T01:29:23.464Z,0
2018-07-28T01:30:04.099Z,0
2018-07-28T01:30:44.683Z,0
2018-07-28T01:31:25.249Z,0
2018-07-28T01:32:05.829Z,0
2018-07-28T01:32:46.396Z,0
2018-07-28T01:33:26.942Z,0
2018-07-28T01:34:07.522Z,0
2018-07-28T01:34:48.175Z,0
2018-07-28T01:35:28.705Z,0
2018-07-28T01:36:09.369Z,0
2018-07-28T01:36:49.933Z,0
2018-07-28T01:37:30.504Z,0
2018-07-28T01:38:11.080Z,0
2018-07-28T01:38:51.657Z,0
2018-07-28T01:39:32.201Z,0
2018-07-28T01:40:12.785Z,0
2018-07-28T01:40:53.350Z,0
2018-07-28T01:41:33.916Z,0
2018-07-28T01:42:14.482Z,0
2018-07-28T01:42:55.216Z,0
2018-07-28T01:43:35.695Z,0
2018-07-28T01:44:16.251Z,0
2018-07-28T01:44:56.830Z,0
2018-07-28T01:45:37.472Z,0
2018-07-28T01:46:18.042Z,0
2018-07-28T01:46:58.600Z,0
2018-07-28T01:47:39.372Z,0
2018-07-28T01:48:19.968Z,0
2018-07-28T01:49:00.556Z,0
2018-07-28T01:49:41.233Z,0
2018-07-28T01:50:21.804Z,0
2018-07-28T01:51:02.379Z,0
2018-07-28T01:51:42.978Z,0
2018-07-28T01:52:23.548Z,0
2018-07-28T01:53:04.133Z,0
2018-07-28T01:53:44.684Z,0
2018-07-28T01:54:25.262Z,0
2018-07-28T01:55:05.893Z,0
2018-07-28T01:55:46.521Z,0
2018-07-28T01:56:27.070Z,0
2018-07-28T01:57:07.640Z,0
2018-07-28T01:57:48.185Z,0
2018-07-28T01:58:28.741Z,0
2018-07-28T01:59:09.387Z,0
2018-07-28T01:59:50.029Z,0
2018-07-28T02:00:30.519Z,0
2018-07-28T02:01:11.073Z,0
2018-07-28T02:01:51.634Z,0
2018-07-28T02:02:32.369Z,0
2018-07-28T02:03:13.067Z,0
2018-07-28T02:03:53.572Z,0
2018-07-28T02:04:34.385Z,0
2018-07-28T02:05:14.925Z,0
2018-07-28T02:05:55.488Z,0
2018-07-28T02:06:36.069Z,0
2018-07-28T02:07:16.622Z,0
2018-07-28T02:07:57.193Z,0
2018-07-28T02:08:37.752Z,0
2018-07-28T02:09:18.379Z,0
2018-07-28T02:09:58.940Z,0
2018-07-28T02:10:39.505Z,0
2018-07-28T02:11:20.124Z,0
2018-07-28T02:12:00.699Z,0
2018-07-28T02:12:41.265Z,0
2018-07-28T02:13:21.829Z,0
2018-07-28T02:14:02.383Z,0
2018-07-28T02:14:42.968Z,0
2018-07-28T02:15:23.539Z,0
2018-07-28T02:16:04.115Z,0
2018-07-28T02:16:44.676Z,0
2018-07-28T02:17:25.237Z,0
2018-07-28T02:18:05.823Z,0
2018-07-28T02:18:46.388Z,0
2018-07-28T02:19:26.953Z,0
2018-07-28T02:20:07.583Z,0
2018-07-28T02:20:48.153Z,0
2018-07-28T02:21:28.744Z,0
2018-07-28T02:22:09.280Z,0
2018-07-28T02:22:49.886Z,0
2018-07-28T02:23:30.453Z,0
2018-07-28T02:24:11.036Z,0
2018-07-28T02:24:51.590Z,0
2018-07-28T02:25:32.165Z,0
2018-07-28T02:26:12.736Z,0
2018-07-28T02:26:53.305Z,0
2018-07-28T02:27:33.857Z,0
2018-07-28T02:28:14.420Z,0
2018-07-28T02:28:55.155Z,0
2018-07-28T02:29:35.545Z,0
2018-07-28T02:30:16.095Z,0
2018-07-28T02:30:56.722Z,0
2018-07-28T02:31:37.277Z,0
2018-07-28T02:32:17.843Z,0
2018-07-28T02:32:58.416Z,0
2018-07-28T02:33:39.061Z,0
2018-07-28T02:34:19.630Z,0
2018-07-28T02:35:00.202Z,0
2018-07-28T02:35:40.770Z,0
2018-07-28T02:36:21.394Z,0
2018-07-28T02:37:01.951Z,0
2018-07-28T02:37:42.515Z,0
2018-07-28T02:38:23.078Z,0
2018-07-28T02:39:03.758Z,0
2018-07-28T02:39:44.322Z,0
2018-07-28T02:40:24.902Z,0
2018-07-28T02:41:05.490Z,0
2018-07-28T02:41:46.044Z,0
2018-07-28T02:42:26.594Z,0
2018-07-28T02:43:07.166Z,0
2018-07-28T02:43:47.719Z,0
2018-07-28T02:44:28.376Z,0
2018-07-28T02:45:08.934Z,0
2018-07-28T02:45:49.513Z,0
2018-07-28T02:46:30.104Z,0
2018-07-28T02:47:10.716Z,0
2018-07-28T02:47:51.283Z,0
2018-07-28T02:48:31.847Z,0
2018-07-28T02:49:12.408Z,0
2018-07-28T02:49:53.038Z,0
2018-07-28T02:50:33.600Z,0
2018-07-28T02:51:14.179Z,0
2018-07-28T02:51:54.734Z,0
2018-07-28T02:52:35.368Z,0
2018-07-28T02:53:15.970Z,0
2018-07-28T02:53:56.548Z,0
2018-07-28T02:54:37.121Z,0
2018-07-28T02:55:17.689Z,0
2018-07-28T02:55:58.262Z,0
2018-07-28T02:56:38.829Z,0
2018-07-28T02:57:19.405Z,0
2018-07-28T02:58:00.016Z,0
2018-07-28T02:58:40.618Z,0
2018-07-28T02:59:21.177Z,0
2018-07-28T03:00:01.749Z,0
2018-07-28T03:00:42.348Z,0
2018-07-28T03:01:22.934Z,0
2018-07-28T03:02:03.500Z,0
2018-07-28T03:02:44.043Z,0
2018-07-28T03:03:24.619Z,0
2018-07-28T03:04:05.192Z,0
2018-07-28T03:04:45.742Z,0
2018-07-28T03:05:26.328Z,0
2018-07-28T03:06:06.904Z,0
2018-07-28T03:06:47.467Z,0
2018-07-28T03:07:28.045Z,0
2018-07-28T03:08:08.607Z,0
2018-07-28T03:08:49.187Z,0
2018-07-28T03:09:29.763Z,0
2018-07-28T03:10:10.339Z,0
2018-07-28T03:10:50.905Z,0
2018-07-28T03:11:31.634Z,0
2018-07-28T03:12:12.214Z,0
2018-07-28T03:12:52.802Z,0
2018-07-28T03:13:33.378Z,0
2018-07-28T03:14:13.943Z,0
2018-07-28T03:14:54.518Z,0
2018-07-28T03:15:35.093Z,0
2018-07-28T03:16:15.655Z,0
2018-07-28T03:16:56.246Z,0
2018-07-28T03:17:36.818Z,0
2018-07-28T03:18:17.391Z,0
2018-07-28T03:18:57.966Z,0
2018-07-28T03:19:38.524Z,0
2018-07-28T03:20:19.094Z,0
2018-07-28T03:20:59.662Z,0
2018-07-28T03:21:40.213Z,0
2018-07-28T03:22:20.879Z,0
2018-07-28T03:23:01.448Z,0
2018-07-28T03:23:42.008Z,0
2018-07-28T03:24:22.579Z,0
2018-07-28T03:25:03.235Z,0
2018-07-28T03:25:43.798Z,5
2018-07-28T03:26:24.364Z,5
2018-07-28T03:27:04.927Z,5
2018-07-28T03:27:45.516Z,5
2018-07-28T03:28:26.070Z,5
2018-07-28T03:29:06.638Z,5
2018-07-28T03:29:47.275Z,5
2018-07-28T03:30:27.874Z,5
2018-07-28T03:31:08.440Z,5
2018-07-28T03:31:49.000Z,5
2018-07-28T03:32:29.573Z,5
2018-07-28T03:33:10.140Z,5
2018-07-28T03:33:50.779Z,5
2018-07-28T03:34:31.357Z,5
2018-07-28T03:35:11.925Z,5
2018-07-28T03:35:52.498Z,5
2018-07-28T03:36:33.056Z,5
2018-07-28T03:37:13.630Z,5
2018-07-28T03:37:54.204Z,5
2018-07-28T03:38:34.773Z,10
2018-07-28T03:39:15.348Z,10
2018-07-28T03:39:55.930Z,10
2018-07-28T03:40:36.486Z,10
2018-07-28T03:41:17.050Z,10
2018-07-28T03:41:57.620Z,10
2018-07-28T03:42:38.258Z,10
2018-07-28T03:43:18.837Z,10
2018-07-28T03:43:59.394Z,10
2018-07-28T03:44:39.962Z,10
2018-07-28T03:45:20.556Z,10
2018-07-28T03:46:01.132Z,10
2018-07-28T03:46:41.697Z,10
2018-07-28T03:47:22.267Z,15
2018-07-28T03:48:02.841Z,15
2018-07-28T03:48:43.414Z,15
2018-07-28T03:49:24.140Z,15
2018-07-28T03:50:04.555Z,15
2018-07-28T03:50:45.129Z,15
2018-07-28T03:51:25.774Z,15
2018-07-28T03:52:06.266Z,15
2018-07-28T03:52:46.879Z,15
2018-07-28T03:53:27.473Z,15
2018-07-28T03:54:08.047Z,15
2018-07-28T03:54:48.675Z,15
2018-07-28T03:55:29.233Z,20
2018-07-28T03:56:09.812Z,20
2018-07-28T03:56:50.372Z,20
2018-07-28T03:57:30.931Z,20
2018-07-28T03:58:11.505Z,20
2018-07-28T03:58:52.166Z,20
2018-07-28T03:59:32.737Z,20
2018-07-28T04:00:13.296Z,20
2018-07-28T04:00:53.895Z,20
2018-07-28T04:01:34.495Z,20
2018-07-28T04:02:15.065Z,20
2018-07-28T04:02:55.696Z,25
2018-07-28T04:03:36.274Z,25
2018-07-28T04:04:16.916Z,25
2018-07-28T04:04:57.446Z,25
2018-07-28T04:05:38.040Z,25
2018-07-28T04:06:18.605Z,25
2018-07-28T04:06:59.164Z,25
2018-07-28T04:07:39.735Z,25
2018-07-28T04:08:20.305Z,25
2018-07-28T04:09:01.032Z,25
2018-07-28T04:09:41.650Z,30
2018-07-28T04:10:22.172Z,30
2018-07-28T04:11:02.737Z,30
2018-07-28T04:11:43.355Z,30
2018-07-28T04:12:23.896Z,30
2018-07-28T04:13:04.528Z,30
2018-07-28T04:13:45.095Z,30
2018-07-28T04:14:25.718Z,30
2018-07-28T04:15:06.239Z,30
2018-07-28T04:15:46.810Z,30
2018-07-28T04:16:27.368Z,35
2018-07-28T04:17:07.948Z,35
2018-07-28T04:17:48.506Z,35
2018-07-28T04:18:29.079Z,35
2018-07-28T04:19:09.648Z,35
2018-07-28T04:19:50.227Z,35
2018-07-28T04:20:30.788Z,35
2018-07-28T04:21:11.348Z,35
2018-07-28T04:21:51.883Z,35
2018-07-28T04:22:32.462Z,40
2018-07-28T04:23:13.014Z,40
2018-07-28T04:23:53.584Z,40
2018-07-28T04:24:34.161Z,40
2018-07-28T04:25:14.724Z,40
2018-07-28T04:25:55.296Z,40
2018-07-28T04:26:35.910Z,40
2018-07-28T04:27:16.501Z,40
2018-07-28T04:27:57.072Z,40
2018-07-28T04:28:37.707Z,45
2018-07-28T04:29:18.241Z,45
2018-07-28T04:29:58.799Z,45
2018-07-28T04:30:39.365Z,45
2018-07-28T04:31:19.928Z,45
2018-07-28T04:32:00.533Z,45
2018-07-28T04:32:41.077Z,45
2018-07-28T04:33:21.648Z,45
2018-07-28T04:34:02.214Z,45
2018-07-28T04:34:42.843Z,45
2018-07-28T04:35:23.404Z,45
2018-07-28T04:36:03.981Z,45
2018-07-28T04:36:44.542Z,45
2018-07-28T04:37:25.124Z,45
2018-07-28T04:38:05.722Z,45
2018-07-28T04:38:46.286Z,45
2018-07-28T04:39:26.856Z,45
2018-07-28T04:40:07.425Z,50
2018-07-28T04:40:47.999Z,50
2018-07-28T04:41:28.570Z,50
2018-07-28T04:42:09.129Z,50
2018-07-28T04:42:49.686Z,50
2018-07-28T04:43:30.258Z,50
2018-07-28T04:44:10.836Z,45
2018-07-28T04:44:51.420Z,45
2018-07-28T04:45:32.003Z,50
2018-07-28T04:46:12.570Z,50
2018-07-28T04:46:53.162Z,50
2018-07-28T04:47:33.767Z,50
2018-07-28T04:48:14.332Z,50
2018-07-28T04:48:54.897Z,50
2018-07-28T04:49:35.470Z,50
2018-07-28T04:50:16.043Z,50
2018-07-28T04:50:56.603Z,50
2018-07-28T04:51:37.173Z,50
2018-07-28T04:52:17.714Z,50
2018-07-28T04:52:58.288Z,50
2018-07-28T04:53:38.862Z,50
2018-07-28T04:54:19.429Z,50
2018-07-28T04:55:00.005Z,55
2018-07-28T04:55:40.576Z,55
2018-07-28T04:56:21.158Z,60
2018-07-28T04:57:01.734Z,65
2018-07-28T04:57:42.305Z,65
2018-07-28T04:58:22.884Z,70
2018-07-28T04:59:03.454Z,70
2018-07-28T04:59:44.018Z,70
2018-07-28T05:00:24.598Z,70
2018-07-28T05:01:05.168Z,75
2018-07-28T05:01:45.744Z,75
2018-07-28T05:02:26.341Z,80
2018-07-28T05:03:06.904Z,80
2018-07-28T05:03:47.475Z,80
2018-07-28T05:04:28.025Z,80
2018-07-28T05:05:08.639Z,85
2018-07-28T05:05:49.175Z,85
2018-07-28T05:06:29.749Z,85
2018-07-28T05:07:10.321Z,85
2018-07-28T05:07:50.879Z,85
2018-07-28T05:08:31.448Z,85
2018-07-28T05:09:12.017Z,85
2018-07-28T05:09:52.580Z,85
2018-07-28T05:10:33.148Z,85
2018-07-28T05:11:13.705Z,85
2018-07-28T05:11:54.292Z,90
2018-07-28T05:12:34.860Z,90
2018-07-28T05:13:15.428Z,90
2018-07-28T05:13:55.996Z,90
2018-07-28T05:14:36.573Z,90
2018-07-28T05:15:17.130Z,95
2018-07-28T05:15:57.759Z,95
2018-07-28T05:16:38.269Z,95
2018-07-28T05:17:18.846Z,95
2018-07-28T05:17:59.424Z,95
2018-07-28T05:18:39.989Z,100
2018-07-28T05:19:20.545Z,100
2018-07-28T05:20:01.117Z,100
2018-07-28T05:20:41.705Z,100
2018-07-28T05:21:22.241Z,100
2018-07-28T05:22:02.819Z,100
2018-07-28T05:22:43.381Z,100
2018-07-28T05:23:24.037Z,105
2018-07-28T05:24:04.606Z,105
2018-07-28T05:24:45.171Z,105
2018-07-28T05:25:25.763Z,105
2018-07-28T05:26:06.341Z,105
2018-07-28T05:26:46.904Z,105
2018-07-28T05:27:27.499Z,105
2018-07-28T05:28:08.083Z,105
2018-07-28T05:28:48.661Z,110
2018-07-28T05:29:29.259Z,110
2018-07-28T05:30:09.801Z,110
2018-07-28T05:30:50.367Z,115
2018-07-28T05:31:30.960Z,115
2018-07-28T05:32:11.529Z,115
2018-07-28T05:32:52.102Z,110
2018-07-28T05:33:32.672Z,115
2018-07-28T05:34:13.280Z,115
2018-07-28T05:34:53.814Z,115
2018-07-28T05:35:34.428Z,120
2018-07-28T05:36:15.008Z,120
2018-07-28T05:36:55.568Z,125
2018-07-28T05:37:36.140Z,125
2018-07-28T05:38:16.746Z,130
2018-07-28T05:38:57.362Z,130
2018-07-28T05:39:37.905Z,135
2018-07-28T05:40:18.496Z,135
2018-07-28T05:40:59.069Z,140
2018-07-28T05:41:39.641Z,140
2018-07-28T05:42:20.211Z,140
2018-07-28T05:43:00.811Z,340
2018-07-28T05:43:41.374Z,755
2018-07-28T05:44:21.954Z,1145
2018-07-28T05:45:02.514Z,1325
2018-07-28T05:45:43.082Z,1345
2018-07-28T05:46:23.662Z,1310
2018-07-28T05:47:04.231Z,1295
2018-07-28T05:47:44.793Z,1320
2018-07-28T05:48:25.374Z,1375
2018-07-28T05:49:05.972Z,1435
2018-07-28T05:49:46.548Z,1440
2018-07-28T05:50:27.128Z,1420
2018-07-28T05:51:07.725Z,1390
2018-07-28T05:51:48.301Z,1350
2018-07-28T05:52:28.884Z,1340
2018-07-28T05:53:09.436Z,1340
2018-07-28T05:53:50.011Z,1335
2018-07-28T05:54:30.586Z,1370
2018-07-28T05:55:11.195Z,1395
2018-07-28T05:55:51.726Z,1440
2018-07-28T05:56:32.298Z,1460
2018-07-28T05:57:12.883Z,1485
2018-07-28T05:57:53.466Z,1465
2018-07-28T05:58:34.042Z,1450
2018-07-28T05:59:14.617Z,1470
2018-07-28T05:59:55.196Z,1515
2018-07-28T06:00:35.813Z,1525
2018-07-28T06:01:16.392Z,1525
2018-07-28T06:01:56.973Z,1560
2018-07-28T06:02:37.595Z,1540
2018-07-28T06:03:18.130Z,1515
2018-07-28T06:03:58.701Z,1500
2018-07-28T06:04:39.321Z,1470
2018-07-28T06:05:19.870Z,1465
2018-07-28T06:06:00.469Z,1430
2018-07-28T06:06:41.063Z,1485
2018-07-28T06:07:21.620Z,1565
2018-07-28T06:08:02.292Z,1595
2018-07-28T06:08:42.863Z,1565
2018-07-28T06:09:23.448Z,1560
2018-07-28T06:10:04.020Z,1555
2018-07-28T06:10:44.708Z,1540
2018-07-28T06:11:25.212Z,1570
2018-07-28T06:12:05.784Z,1550
2018-07-28T06:12:46.365Z,1570
2018-07-28T06:13:26.953Z,1600
2018-07-28T06:14:07.537Z,1640
2018-07-28T06:14:48.103Z,1670
2018-07-28T06:15:28.676Z,1645
2018-07-28T06:16:09.275Z,1615
2018-07-28T06:16:49.852Z,1675
2018-07-28T06:17:30.423Z,1665
2018-07-28T06:18:10.984Z,1625
2018-07-28T06:18:51.603Z,1615
2018-07-28T06:19:32.180Z,1665
2018-07-28T06:20:12.789Z,1685
2018-07-28T06:20:53.341Z,1655
2018-07-28T06:21:33.921Z,1620
2018-07-28T06:22:14.506Z,1655
2018-07-28T06:22:55.125Z,1690
2018-07-28T06:23:35.721Z,1660
2018-07-28T06:24:16.330Z,1600
2018-07-28T06:24:56.889Z,1610
2018-07-28T06:25:37.609Z,1645
2018-07-28T06:26:18.109Z,1705
2018-07-28T06:26:58.678Z,1730
2018-07-28T06:27:39.264Z,1705
2018-07-28T06:28:19.845Z,1740
2018-07-28T06:29:00.415Z,1715
2018-07-28T06:29:40.993Z,1750
2018-07-28T06:30:21.604Z,1665
2018-07-28T06:31:02.176Z,1680
2018-07-28T06:31:42.816Z,1690
2018-07-28T06:32:23.351Z,1685
2018-07-28T06:33:03.922Z,1670
2018-07-28T06:33:44.489Z,1610
2018-07-28T06:34:25.075Z,1685
2018-07-28T06:35:05.656Z,1730
2018-07-28T06:35:46.309Z,1765
2018-07-28T06:36:26.957Z,1740
2018-07-28T06:37:07.529Z,1755
2018-07-28T06:37:48.113Z,1755
2018-07-28T06:38:28.704Z,1770
2018-07-28T06:39:09.284Z,1760
2018-07-28T06:39:49.872Z,1680
2018-07-28T06:40:30.442Z,1675
2018-07-28T06:41:11.008Z,1670
2018-07-28T06:41:51.588Z,1675
2018-07-28T06:42:32.156Z,1690
2018-07-28T06:43:12.736Z,1745
2018-07-28T06:43:53.306Z,1735
2018-07-28T06:44:33.894Z,1755
2018-07-28T06:45:14.470Z,1755
2018-07-28T06:45:55.053Z,1725
2018-07-28T06:46:35.754Z,1735
2018-07-28T06:47:16.375Z,1735
2018-07-28T06:47:56.950Z,1800
2018-07-28T06:48:37.514Z,1815
2018-07-28T06:49:18.113Z,1750
2018-07-28T06:49:58.716Z,1705
2018-07-28T06:50:39.288Z,1755
2018-07-28T06:51:19.867Z,1830
2018-07-28T06:52:00.442Z,1825
2018-07-28T06:52:41.018Z,1745
2018-07-28T06:53:21.625Z,1725
2018-07-28T06:54:02.196Z,1800
2018-07-28T06:54:42.786Z,1845
2018-07-28T06:55:23.373Z,1825
2018-07-28T06:56:03.989Z,1750
2018-07-28T06:56:44.498Z,1730
2018-07-28T06:57:25.077Z,1760
2018-07-28T06:58:05.655Z,1825
2018-07-28T06:58:46.250Z,1805
2018-07-28T06:59:26.835Z,1820
2018-07-28T07:00:07.403Z,1825
2018-07-28T07:00:48.003Z,1860
2018-07-28T07:01:28.676Z,1880
2018-07-28T07:02:09.256Z,1920
2018-07-28T07:02:49.836Z,1895
2018-07-28T07:03:30.422Z,1895
2018-07-28T07:04:10.983Z,1965
2018-07-28T07:04:51.596Z,1935
2018-07-28T07:05:32.152Z,1850
2018-07-28T07:06:12.743Z,1810
2018-07-28T07:06:53.334Z,1810
2018-07-28T07:07:33.904Z,1800
2018-07-28T07:08:14.491Z,1815
2018-07-28T07:08:55.069Z,1790
2018-07-28T07:09:35.642Z,1800
2018-07-28T07:10:16.239Z,1810
2018-07-28T07:10:56.802Z,1805
2018-07-28T07:11:37.449Z,1795
2018-07-28T07:12:18.069Z,1740
2018-07-28T07:12:58.682Z,1705
2018-07-28T07:13:39.263Z,1725
2018-07-28T07:14:19.913Z,1725
2018-07-28T07:15:00.535Z,1665
2018-07-28T07:15:41.054Z,1570
2018-07-28T07:16:21.632Z,1510
2018-07-28T07:17:02.193Z,1445
2018-07-28T07:17:42.922Z,1370
2018-07-28T07:18:23.519Z,1255
2018-07-28T07:19:04.121Z,1145
2018-07-28T07:19:44.941Z,1050
2018-07-28T07:20:25.530Z,985
2018-07-28T07:21:06.109Z,960
2018-07-28T07:21:46.681Z,905
2018-07-28T07:22:27.260Z,845
2018-07-28T07:23:07.832Z,805
2018-07-28T07:23:48.453Z,760
2018-07-28T07:24:29.030Z,715
2018-07-28T07:25:09.618Z,675
2018-07-28T07:25:50.197Z,655
2018-07-28T07:26:30.853Z,645
2018-07-28T07:27:11.388Z,635
2018-07-28T07:27:51.953Z,620
2018-07-28T07:28:32.523Z,610
2018-07-28T07:29:13.123Z,595
2018-07-28T07:29:53.715Z,600
2018-07-28T07:30:34.573Z,595
2018-07-28T07:31:15.084Z,595
2018-07-28T07:31:55.651Z,590
2018-07-28T07:32:36.269Z,585
2018-07-28T07:33:16.903Z,560
2018-07-28T07:33:57.488Z,525
2018-07-28T07:34:38.078Z,515
2018-07-28T07:35:18.773Z,535
2018-07-28T07:35:59.517Z,540
2018-07-28T07:36:40.104Z,520
2018-07-28T07:37:20.681Z,520
2018-07-28T07:38:01.288Z,525
2018-07-28T07:38:41.944Z,545
2018-07-28T07:39:22.569Z,550
2018-07-28T07:40:03.112Z,570
2018-07-28T07:40:43.725Z,585
2018-07-28T07:41:24.337Z,595
2018-07-28T07:42:04.913Z,590
2018-07-28T07:42:45.485Z,585
2018-07-28T07:43:26.124Z,585
2018-07-28T07:44:06.702Z,585
2018-07-28T07:44:47.301Z,585
2018-07-28T07:45:27.869Z,585
2018-07-28T07:46:08.445Z,580
2018-07-28T07:46:49.023Z,570
2018-07-28T07:47:29.703Z,565
2018-07-28T07:48:10.223Z,560
2018-07-28T07:48:50.839Z,550
2018-07-28T07:49:31.427Z,550
2018-07-28T07:50:12.026Z,540
2018-07-28T07:50:52.610Z,510
2018-07-28T07:51:33.185Z,510
2018-07-28T07:52:13.767Z,520
2018-07-28T07:52:54.507Z,515
2018-07-28T07:53:34.962Z,515
2018-07-28T07:54:15.535Z,530
2018-07-28T07:54:56.116Z,535
2018-07-28T07:55:36.719Z,545
2018-07-28T07:56:17.295Z,540
2018-07-28T07:56:57.906Z,540
2018-07-28T07:57:38.479Z,545
2018-07-28T07:58:19.182Z,560
2018-07-28T07:58:59.771Z,565
2018-07-28T07:59:40.349Z,545
2018-07-28T08:00:20.939Z,545
2018-07-28T08:01:01.730Z,545
2018-07-28T08:01:42.310Z,540
2018-07-28T08:02:22.868Z,530
2018-07-28T08:03:03.430Z,535
2018-07-28T08:03:44.009Z,525
2018-07-28T08:04:24.587Z,500
2018-07-28T08:05:05.241Z,505
2018-07-28T08:05:45.885Z,490
2018-07-28T08:06:26.495Z,480
2018-07-28T08:07:07.061Z,460
2018-07-28T08:07:47.652Z,455
2018-07-28T08:08:28.231Z,425
2018-07-28T08:09:08.845Z,420
2018-07-28T08:09:49.416Z,410
2018-07-28T08:10:29.987Z,410
2018-07-28T08:11:10.597Z,410
2018-07-28T08:11:51.390Z,410
2018-07-28T08:12:31.978Z,405
2018-07-28T08:13:12.549Z,405
2018-07-28T08:13:53.139Z,405
2018-07-28T08:14:33.729Z,405
2018-07-28T08:15:14.333Z,395
2018-07-28T08:15:54.912Z,390
2018-07-28T08:16:35.630Z,395
2018-07-28T08:17:16.207Z,380
2018-07-28T08:17:56.875Z,380
2018-07-28T08:18:37.506Z,380
2018-07-28T08:19:18.070Z,385
2018-07-28T08:19:58.643Z,385
2018-07-28T08:20:39.263Z,380
2018-07-28T08:21:19.792Z,380
2018-07-28T08:22:00.401Z,375
2018-07-28T08:22:40.999Z,370
2018-07-28T08:23:21.557Z,370
2018-07-28T08:24:02.153Z,370
2018-07-28T08:24:42.735Z,355
2018-07-28T08:25:23.301Z,350
2018-07-28T08:26:03.869Z,345
2018-07-28T08:26:44.512Z,345
2018-07-28T08:27:25.039Z,345
2018-07-28T08:28:05.615Z,345
2018-07-28T08:28:46.194Z,345
2018-07-28T08:29:26.812Z,340
2018-07-28T08:30:07.383Z,330
2018-07-28T08:30:47.965Z,325
2018-07-28T08:31:28.566Z,325
2018-07-28T08:32:09.147Z,325
2018-07-28T08:32:49.726Z,325
2018-07-28T08:33:30.476Z,320
2018-07-28T08:34:10.904Z,315
2018-07-28T08:34:51.485Z,320
2018-07-28T08:35:32.059Z,315
2018-07-28T08:36:12.626Z,310
2018-07-28T08:36:53.214Z,195
2018-07-28T08:37:33.790Z,200
2018-07-28T08:38:14.377Z,285
2018-07-28T08:38:54.988Z,205
2018-07-28T08:39:35.572Z,290
2018-07-28T08:40:16.167Z,290
2018-07-28T08:40:56.731Z,285
2018-07-28T08:41:37.288Z,275
2018-07-28T08:42:17.861Z,270
2018-07-28T08:42:58.413Z,270
2018-07-28T08:43:38.964Z,265
2018-07-28T08:44:19.597Z,255
2018-07-28T08:45:00.164Z,265
2018-07-28T08:45:40.746Z,255
2018-07-28T08:46:21.411Z,260
2018-07-28T08:47:01.959Z,250
2018-07-28T08:47:42.529Z,245
2018-07-28T08:48:23.108Z,250
2018-07-28T08:49:03.763Z,250
2018-07-28T08:49:44.304Z,245
2018-07-28T08:50:25.017Z,245
2018-07-28T08:51:05.500Z,240
2018-07-28T08:51:46.070Z,240
2018-07-28T08:52:26.638Z,235
2018-07-28T08:53:07.211Z,235
2018-07-28T08:53:47.785Z,230
2018-07-28T08:54:28.344Z,215
2018-07-28T08:55:08.918Z,215
2018-07-28T08:55:49.519Z,215
2018-07-28T08:56:30.100Z,215
2018-07-28T08:57:10.669Z,210
2018-07-28T08:57:51.238Z,200
2018-07-28T08:58:31.823Z,195
2018-07-28T08:59:12.401Z,190
2018-07-28T08:59:52.951Z,185
2018-07-28T09:00:33.551Z,175
2018-07-28T09:01:14.185Z,175
2018-07-28T09:01:54.762Z,180
2018-07-28T09:02:35.337Z,185
2018-07-28T09:03:15.948Z,180
2018-07-28T09:03:56.522Z,180
2018-07-28T09:04:37.120Z,175
2018-07-28T09:05:17.967Z,165
2018-07-28T09:05:58.625Z,165
2018-07-28T09:06:39.167Z,165
2018-07-28T09:07:19.775Z,170
2018-07-28T09:08:00.621Z,165
2018-07-28T09:08:41.186Z,170
2018-07-28T09:09:21.876Z,170
2018-07-28T09:10:02.460Z,180
2018-07-28T09:10:43.078Z,185
2018-07-28T09:11:23.709Z,190
2018-07-28T09:12:04.310Z,190
2018-07-28T09:12:44.900Z,190
2018-07-28T09:13:25.475Z,190
2018-07-28T09:14:06.042Z,190
2018-07-28T09:14:46.640Z,190
2018-07-28T09:15:27.320Z,185
2018-07-28T09:16:07.789Z,185
2018-07-28T09:16:48.356Z,185
2018-07-28T09:17:28.916Z,185
2018-07-28T09:18:09.484Z,190
2018-07-28T09:18:50.044Z,190
2018-07-28T09:19:30.618Z,195
2018-07-28T09:20:11.340Z,200
2018-07-28T09:20:52.132Z,200
2018-07-28T09:21:32.701Z,200
2018-07-28T09:22:13.276Z,200
2018-07-28T09:22:53.916Z,200
2018-07-28T09:23:34.729Z,195
2018-07-28T09:24:15.285Z,195
2018-07-28T09:24:55.856Z,195
2018-07-28T09:25:36.450Z,195
2018-07-28T09:26:17.021Z,195
2018-07-28T09:26:57.587Z,200
2018-07-28T09:27:38.167Z,200
2018-07-28T09:28:18.732Z,200
2018-07-28T09:28:59.308Z,205
2018-07-28T09:29:39.885Z,205
2018-07-28T09:30:20.450Z,205
2018-07-28T09:31:01.154Z,200
2018-07-28T09:31:41.723Z,200
2018-07-28T09:32:22.283Z,200
2018-07-28T09:33:02.901Z,200
2018-07-28T09:33:43.477Z,195
2018-07-28T09:34:24.043Z,195